createdAt,value
2022-12-31T00:01:39.466Z,91.33
2022-12-31T00:04:28.015Z,91.40
2022-12-31T00:07:16.485Z,91.34
2022-12-31T00:10:05.588Z,91.44
2022-12-31T00:12:54.070Z,91.43
2022-12-31T00:15:43.076Z,91.66
2022-12-31T00:18:31.523Z,91.76
2022-12-31T00:21:20.571Z,91.91
2022-12-31T00:24:10.971Z,92.00
2022-12-31T00:26:59.495Z,92.18
2022-12-31T00:29:49.614Z,92.14
2022-12-31T00:32:38.254Z,91.97
2022-12-31T00:35:26.913Z,91.95
2022-12-31T00:38:15.488Z,92.20
2022-12-31T00:41:04.433Z,92.40
2022-12-31T00:43:52.973Z,92.61
2022-12-31T00:49:30.465Z,92.73
2022-12-31T00:52:19.252Z,93.00
2022-12-31T00:55:08.812Z,93.09
2022-12-31T00:57:57.194Z,93.09
2022-12-31T01:00:45.685Z,93.19
2022-12-31T01:03:34.221Z,93.20
2022-12-31T01:06:22.741Z,93.04
2022-12-31T01:09:12.600Z,93.36
2022-12-31T01:12:01.067Z,93.63
2022-12-31T01:14:49.582Z,93.79
2022-12-31T01:17:38.164Z,93.77
2022-12-31T01:20:26.574Z,93.69
2022-12-31T01:23:15.116Z,93.60
2022-12-31T01:26:04.534Z,93.75
2022-12-31T01:28:52.787Z,93.93
2022-12-31T01:31:41.647Z,94.02
2022-12-31T01:34:30.906Z,94.06
2022-12-31T01:37:19.335Z,94.13
2022-12-31T01:40:08.656Z,93.82
2022-12-31T01:42:57.562Z,93.71
2022-12-31T01:45:48.104Z,93.78
2022-12-31T01:48:36.704Z,93.98
2022-12-31T01:51:26.454Z,94.15
2022-12-31T01:54:18.070Z,94.13
2022-12-31T01:57:08.480Z,94.13
2022-12-31T01:59:58.517Z,94.30
2022-12-31T02:02:47.064Z,94.56
2022-12-31T02:05:38.216Z,94.99
2022-12-31T02:08:26.272Z,95.10
2022-12-31T02:11:32.512Z,95.37
2022-12-31T02:14:25.006Z,95.73
2022-12-31T02:17:20.169Z,95.94
2022-12-31T02:20:24.088Z,95.88
2022-12-31T02:23:32.744Z,95.81
2022-12-31T02:26:29.940Z,95.99
2022-12-31T02:29:27.004Z,95.48
2022-12-31T02:32:17.629Z,95.65
2022-12-31T02:35:08.835Z,95.95
2022-12-31T02:38:01.939Z,95.90
2022-12-31T02:40:50.581Z,96.01
2022-12-31T02:43:46.497Z,96.21
2022-12-31T02:46:39.946Z,96.45
2022-12-31T02:49:32.070Z,96.39
2022-12-31T02:52:25.433Z,96.45
2022-12-31T02:55:17.216Z,96.47
2022-12-31T02:58:09.902Z,96.67
2022-12-31T03:01:16.684Z,96.79
2022-12-31T03:04:20.052Z,96.91
2022-12-31T03:07:10.004Z,96.99
2022-12-31T03:09:58.757Z,96.90
2022-12-31T03:12:48.215Z,96.78
2022-12-31T03:15:38.533Z,97.01
2022-12-31T03:18:55.825Z,97.02
2022-12-31T03:22:02.668Z,96.83
2022-12-31T03:25:09.631Z,96.88
2022-12-31T03:27:58.364Z,96.89
2022-12-31T03:30:48.935Z,96.95
2022-12-31T03:33:38.849Z,96.89
2022-12-31T03:36:27.359Z,97.07
2022-12-31T03:39:15.767Z,96.90
2022-12-31T03:42:04.356Z,96.93
2022-12-31T03:44:52.985Z,96.95
2022-12-31T03:47:42.688Z,97.12
2022-12-31T03:50:31.192Z,97.25
2022-12-31T03:53:19.690Z,97.22
2022-12-31T03:56:08.414Z,97.30
2022-12-31T03:58:56.882Z,97.15
2022-12-31T04:01:45.494Z,96.97
2022-12-31T04:04:33.995Z,97.10
2022-12-31T04:07:22.696Z,97.22
2022-12-31T04:10:12.640Z,97.24
2022-12-31T04:13:03.825Z,96.97
2022-12-31T04:15:52.255Z,96.88
2022-12-31T04:18:40.709Z,96.97
2022-12-31T04:21:34.783Z,97.05
2022-12-31T04:24:23.679Z,96.88
2022-12-31T04:27:12.660Z,96.88
2022-12-31T04:30:01.039Z,96.98
2022-12-31T04:32:49.511Z,96.83
2022-12-31T04:35:38.033Z,97.29
2022-12-31T04:38:26.500Z,97.56
2022-12-31T04:41:17.885Z,97.57
2022-12-31T04:44:06.194Z,97.62
2022-12-31T04:46:54.577Z,97.79
2022-12-31T04:49:43.080Z,97.88
2022-12-31T04:52:34.635Z,97.95
2022-12-31T04:55:27.097Z,98.04
2022-12-31T04:58:15.678Z,97.98
2022-12-31T05:01:04.416Z,98.14
2022-12-31T05:03:52.858Z,98.14
2022-12-31T05:06:41.349Z,98.21
2022-12-31T05:09:30.421Z,98.17
2022-12-31T05:12:19.114Z,98.04
2022-12-31T05:15:08.751Z,97.75
2022-12-31T05:17:57.232Z,97.45
2022-12-31T05:20:45.861Z,97.37
2022-12-31T05:23:34.465Z,97.26
2022-12-31T05:26:22.986Z,97.70
2022-12-31T05:29:11.485Z,98.08
2022-12-31T05:31:59.953Z,97.93
2022-12-31T05:34:48.818Z,97.98
2022-12-31T05:37:37.370Z,98.14
2022-12-31T05:40:25.937Z,98.33
2022-12-31T05:43:14.377Z,98.25
2022-12-31T05:46:03.841Z,98.22
2022-12-31T05:48:51.931Z,97.75
2022-12-31T05:51:40.453Z,98.02
2022-12-31T05:54:28.868Z,98.39
2022-12-31T05:57:17.324Z,98.27
2022-12-31T06:00:07.399Z,98.33
2022-12-31T06:03:02.120Z,98.65
2022-12-31T06:05:50.369Z,98.45
2022-12-31T06:08:38.874Z,98.01
2022-12-31T06:11:27.443Z,97.57
2022-12-31T06:14:15.925Z,97.64
2022-12-31T06:17:04.346Z,97.76
2022-12-31T06:19:52.847Z,98.22
2022-12-31T06:22:41.385Z,98.53
2022-12-31T06:25:29.877Z,98.21
2022-12-31T06:28:20.519Z,98.11
2022-12-31T06:31:11.598Z,98.06
2022-12-31T06:34:00.127Z,98.17
2022-12-31T06:36:48.643Z,98.14
2022-12-31T06:39:37.108Z,98.34
2022-12-31T06:42:27.712Z,98.18
2022-12-31T06:45:16.283Z,98.09
2022-12-31T06:48:05.273Z,98.27
2022-12-31T06:50:53.748Z,98.33
2022-12-31T06:53:42.298Z,98.33
2022-12-31T06:56:34.703Z,98.40
2022-12-31T06:59:25.104Z,98.61
2022-12-31T07:02:22.940Z,98.59
2022-12-31T07:05:21.515Z,98.75
2022-12-31T07:08:18.959Z,98.65
2022-12-31T07:11:12.217Z,98.51
2022-12-31T07:14:03.588Z,98.53
2022-12-31T07:16:59.828Z,98.51
2022-12-31T07:19:57.278Z,98.56
2022-12-31T07:22:46.902Z,98.35
2022-12-31T07:25:36.595Z,98.54
2022-12-31T07:28:32.132Z,98.57
2022-12-31T07:31:27.602Z,98.75
2022-12-31T07:34:20.266Z,98.69
2022-12-31T07:37:13.104Z,98.84
2022-12-31T07:40:03.354Z,98.65
2022-12-31T07:43:00.756Z,98.53
2022-12-31T07:45:52.557Z,98.63
2022-12-31T07:48:41.278Z,98.55
2022-12-31T07:51:30.200Z,98.46
2022-12-31T07:54:18.659Z,98.06
2022-12-31T07:57:07.331Z,97.59
2022-12-31T08:00:01.884Z,97.88
2022-12-31T08:03:12.999Z,98.33
2022-12-31T08:06:06.953Z,98.34
2022-12-31T08:08:59.016Z,98.27
2022-12-31T08:11:49.776Z,98.50
2022-12-31T08:14:42.442Z,98.83
2022-12-31T08:17:31.192Z,98.90
2022-12-31T08:20:19.722Z,98.86
2022-12-31T08:23:21.783Z,98.85
2022-12-31T08:26:20.542Z,98.71
2022-12-31T08:29:21.783Z,98.70
2022-12-31T08:32:16.695Z,98.60
2022-12-31T08:35:10.619Z,98.65
2022-12-31T08:38:02.461Z,98.48
2022-12-31T08:40:52.854Z,97.83
2022-12-31T08:43:46.084Z,97.87
2022-12-31T08:46:38.496Z,98.17
2022-12-31T08:49:27.860Z,98.37
2022-12-31T08:52:23.887Z,98.35
2022-12-31T08:55:17.242Z,98.51
2022-12-31T08:58:12.503Z,98.60
2022-12-31T09:01:01.707Z,98.73
2022-12-31T09:03:59.703Z,98.70
2022-12-31T09:06:53.019Z,98.52
2022-12-31T09:09:49.267Z,98.50
2022-12-31T09:12:41.927Z,98.62
2022-12-31T09:15:35.984Z,98.70
2022-12-31T09:18:28.381Z,98.99
2022-12-31T09:21:21.765Z,98.88
2022-12-31T09:24:11.801Z,98.80
2022-12-31T09:27:05.941Z,98.50
2022-12-31T09:29:58.075Z,98.61
2022-12-31T09:32:56.840Z,98.58
2022-12-31T09:35:52.633Z,98.60
2022-12-31T09:38:51.863Z,98.73
2022-12-31T09:41:56.435Z,98.96
2022-12-31T09:44:58.469Z,98.86
2022-12-31T09:48:05.331Z,98.69
2022-12-31T09:51:13.943Z,98.64
2022-12-31T09:54:28.375Z,98.80
2022-12-31T09:57:30.759Z,99.00
2022-12-31T10:00:21.315Z,98.71
2022-12-31T10:03:24.919Z,98.66
2022-12-31T10:06:27.441Z,98.61
2022-12-31T10:09:21.830Z,98.48
2022-12-31T10:12:28.368Z,98.53
2022-12-31T10:15:27.030Z,98.47
2022-12-31T10:18:22.808Z,98.28
2022-12-31T10:21:21.359Z,98.27
2022-12-31T10:24:24.381Z,98.59
2022-12-31T10:27:20.709Z,98.55
2022-12-31T10:30:16.580Z,98.56
2022-12-31T10:33:08.832Z,98.40
2022-12-31T10:36:05.846Z,97.76
2022-12-31T10:39:06.211Z,97.82
2022-12-31T10:42:17.431Z,97.49
2022-12-31T10:45:33.809Z,97.40
2022-12-31T10:48:51.425Z,97.66
2022-12-31T10:51:54.010Z,97.66
2022-12-31T10:54:59.325Z,97.14
2022-12-31T10:58:03.593Z,96.72
2022-12-31T11:01:00.322Z,96.65
2022-12-31T11:04:16.120Z,96.77
2022-12-31T11:07:21.609Z,96.78
2022-12-31T11:10:20.072Z,96.43
2022-12-31T11:13:25.837Z,96.00
2022-12-31T11:16:27.561Z,95.73
2022-12-31T11:19:21.992Z,95.86
2022-12-31T11:22:19.397Z,95.94
2022-12-31T11:25:18.227Z,96.08
2022-12-31T11:28:13.929Z,96.40
2022-12-31T11:31:10.983Z,96.69
2022-12-31T11:34:14.006Z,96.64
2022-12-31T11:37:10.911Z,96.44
2022-12-31T11:40:04.998Z,96.51
2022-12-31T11:42:55.948Z,96.45
2022-12-31T11:45:51.815Z,96.69
2022-12-31T11:48:44.948Z,96.36
2022-12-31T11:51:40.689Z,95.76
2022-12-31T11:54:48.311Z,95.42
2022-12-31T11:57:37.752Z,95.23
2022-12-31T12:00:27.609Z,95.14
2022-12-31T12:03:16.120Z,95.36
2022-12-31T12:06:05.023Z,95.31
2022-12-31T12:08:53.692Z,95.39
2022-12-31T12:11:43.724Z,95.45
2022-12-31T12:14:33.096Z,95.28
2022-12-31T12:17:31.453Z,95.06
2022-12-31T12:20:21.683Z,94.80
2022-12-31T12:23:16.036Z,94.51
2022-12-31T12:26:04.706Z,94.06
2022-12-31T12:28:53.161Z,93.61
2022-12-31T12:31:41.974Z,92.78
2022-12-31T12:34:31.423Z,92.55
2022-12-31T12:37:31.811Z,92.64
2022-12-31T12:40:21.222Z,92.81
2022-12-31T12:43:21.256Z,92.87
2022-12-31T12:46:19.387Z,92.93
2022-12-31T12:49:07.899Z,92.41
2022-12-31T12:52:17.229Z,92.17
2022-12-31T12:55:10.428Z,91.86
2022-12-31T12:58:03.450Z,91.90
2022-12-31T13:00:56.322Z,92.05
2022-12-31T13:07:17.179Z,92.02
2022-12-31T13:10:15.174Z,91.99
2022-12-31T13:13:25.008Z,91.62
2022-12-31T13:16:17.216Z,91.34
2022-12-31T13:19:11.916Z,91.28
2022-12-31T13:22:05.083Z,91.33
2022-12-31T13:25:01.517Z,91.28
2022-12-31T13:27:52.052Z,91.34
2022-12-31T13:30:43.635Z,91.52
2022-12-31T13:33:35.877Z,91.43
2022-12-31T13:36:27.760Z,90.98
2022-12-31T13:39:17.676Z,90.76
2022-12-31T13:42:09.955Z,90.80
2022-12-31T13:45:02.138Z,90.93
2022-12-31T13:47:54.257Z,90.52
2022-12-31T13:50:49.594Z,90.27
2022-12-31T13:53:45.940Z,90.10
2022-12-31T13:56:37.717Z,89.80
2022-12-31T13:59:28.474Z,89.82
2022-12-31T14:02:26.965Z,89.40
2022-12-31T14:05:20.268Z,89.24
2022-12-31T14:08:10.231Z,89.29
2022-12-31T14:11:04.764Z,89.31
2022-12-31T14:14:03.263Z,89.30
2022-12-31T14:16:55.936Z,89.20
2022-12-31T14:19:51.935Z,89.03
2022-12-31T14:22:44.496Z,88.97
2022-12-31T14:25:37.242Z,88.92
2022-12-31T14:28:30.382Z,88.91
2022-12-31T14:31:25.970Z,89.16
2022-12-31T14:34:18.435Z,89.40
2022-12-31T14:37:13.296Z,89.47
2022-12-31T14:40:05.874Z,88.95
2022-12-31T14:43:03.391Z,88.47
2022-12-31T14:45:56.342Z,88.33
2022-12-31T14:48:54.156Z,88.24
2022-12-31T14:51:47.044Z,88.16
2022-12-31T14:54:37.279Z,88.34
2022-12-31T14:57:27.283Z,88.22
2022-12-31T15:00:33.513Z,88.17
2022-12-31T15:03:26.971Z,88.11
2022-12-31T15:06:29.470Z,87.73
2022-12-31T15:09:28.977Z,87.68
2022-12-31T15:12:33.429Z,87.89
2022-12-31T15:15:35.557Z,87.93
2022-12-31T15:18:31.939Z,88.18
2022-12-31T15:21:40.474Z,88.22
2022-12-31T15:24:30.314Z,88.52
2022-12-31T15:27:29.152Z,88.62
2022-12-31T15:30:42.491Z,88.87
2022-12-31T15:33:33.155Z,88.99
2022-12-31T15:36:21.941Z,89.44
2022-12-31T15:39:25.461Z,89.63
2022-12-31T15:42:40.027Z,89.95
2022-12-31T15:45:33.483Z,90.18
2022-12-31T15:48:24.408Z,90.43
2022-12-31T15:51:16.781Z,90.73
2022-12-31T15:54:05.302Z,90.86
2022-12-31T15:56:54.154Z,90.83
2022-12-31T15:59:44.232Z,90.83
2022-12-31T16:02:32.826Z,90.92
2022-12-31T16:05:22.672Z,91.01
2022-12-31T16:08:17.088Z,90.95
2022-12-31T16:11:06.154Z,91.08
2022-12-31T16:13:55.497Z,91.48
2022-12-31T16:16:51.430Z,91.36
2022-12-31T16:19:43.052Z,91.24
2022-12-31T16:22:36.468Z,91.41
2022-12-31T16:25:32.062Z,91.67
2022-12-31T16:28:23.132Z,91.81
2022-12-31T16:31:16.242Z,91.82
2022-12-31T16:34:06.709Z,91.85
2022-12-31T16:36:55.787Z,92.30
2022-12-31T16:40:06.716Z,92.45
2022-12-31T16:42:55.051Z,92.87
2022-12-31T16:45:43.861Z,92.95
2022-12-31T16:48:33.814Z,93.06
2022-12-31T16:51:24.215Z,93.03
2022-12-31T16:54:18.932Z,93.13
2022-12-31T16:57:10.340Z,93.23
2022-12-31T17:00:01.209Z,93.25
2022-12-31T17:03:00.035Z,93.60
2022-12-31T17:05:56.485Z,93.30
2022-12-31T17:08:47.892Z,93.01
2022-12-31T17:11:38.744Z,93.11
2022-12-31T17:14:28.058Z,93.31
2022-12-31T17:17:20.487Z,93.23
2022-12-31T17:20:19.775Z,93.16
2022-12-31T17:23:08.844Z,93.25
2022-12-31T17:26:03.394Z,93.21
2022-12-31T17:28:53.438Z,93.21
2022-12-31T17:31:57.261Z,93.32
2022-12-31T17:34:48.630Z,93.48
2022-12-31T17:37:37.088Z,93.54
2022-12-31T17:40:50.961Z,93.73
2022-12-31T17:43:40.770Z,93.88
2022-12-31T17:46:40.280Z,94.02
2022-12-31T17:49:30.023Z,93.79
2022-12-31T17:52:18.326Z,93.92
2022-12-31T17:55:07.071Z,94.11
2022-12-31T17:57:56.690Z,94.45
2022-12-31T18:00:44.781Z,94.67
2022-12-31T18:03:33.160Z,94.45
2022-12-31T18:06:21.645Z,94.55
2022-12-31T18:09:11.924Z,94.63
2022-12-31T18:12:02.034Z,95.21
2022-12-31T18:14:51.573Z,95.62
2022-12-31T18:17:40.366Z,95.91
2022-12-31T18:20:29.242Z,95.86
2022-12-31T18:23:18.930Z,95.80
2022-12-31T18:26:09.769Z,95.87
2022-12-31T18:28:58.762Z,95.92
2022-12-31T18:31:48.796Z,95.81
2022-12-31T18:34:36.831Z,95.83
2022-12-31T18:37:28.191Z,95.79
2022-12-31T18:40:16.431Z,95.54
2022-12-31T18:43:05.422Z,95.77
2022-12-31T18:45:53.738Z,95.76
2022-12-31T18:48:42.566Z,95.73
2022-12-31T18:51:32.456Z,95.67
2022-12-31T18:54:21.261Z,95.43
2022-12-31T18:57:10.655Z,95.09
2022-12-31T18:59:59.272Z,95.11
2022-12-31T19:02:47.886Z,95.32
2022-12-31T19:05:37.296Z,95.53
2022-12-31T19:08:25.993Z,95.48
2022-12-31T19:11:15.025Z,95.59
2022-12-31T19:14:03.618Z,95.18
2022-12-31T19:16:53.600Z,95.25
2022-12-31T19:19:41.728Z,95.43
2022-12-31T19:22:30.155Z,95.73
2022-12-31T19:25:19.898Z,95.81
2022-12-31T19:28:14.740Z,95.65
2022-12-31T19:31:03.148Z,95.43
2022-12-31T19:33:51.702Z,95.74
2022-12-31T19:36:44.228Z,95.90
2022-12-31T19:39:32.762Z,95.99
2022-12-31T19:42:21.289Z,96.08
2022-12-31T19:45:12.802Z,95.84
2022-12-31T19:48:00.945Z,95.38
2022-12-31T19:50:50.255Z,94.98
2022-12-31T19:53:39.116Z,95.15
2022-12-31T19:56:27.487Z,95.55
2022-12-31T19:59:18.276Z,95.85
2022-12-31T20:02:06.976Z,96.08
2022-12-31T20:04:55.624Z,96.00
2022-12-31T20:07:44.048Z,96.10
2022-12-31T20:10:32.483Z,95.90
2022-12-31T20:13:21.033Z,95.87
2022-12-31T20:16:10.325Z,95.83
2022-12-31T20:18:58.375Z,95.86
2022-12-31T20:21:46.863Z,95.83
2022-12-31T20:24:35.319Z,95.95
2022-12-31T20:27:23.769Z,96.17
2022-12-31T20:30:12.496Z,96.05
2022-12-31T20:33:00.950Z,95.82
2022-12-31T20:35:49.668Z,95.46
2022-12-31T20:38:38.168Z,95.65
2022-12-31T20:41:26.761Z,95.92
2022-12-31T20:44:15.251Z,96.05
2022-12-31T20:47:03.699Z,96.00
2022-12-31T20:50:12.211Z,96.14
2022-12-31T20:53:01.423Z,96.08
2022-12-31T20:55:50.039Z,95.72
2022-12-31T20:58:40.561Z,95.59
2022-12-31T21:01:41.758Z,95.84
2022-12-31T21:04:40.340Z,95.80
2022-12-31T21:07:29.768Z,96.20
2022-12-31T21:10:18.031Z,96.22
2022-12-31T21:13:06.561Z,96.56
2022-12-31T21:15:55.131Z,96.68
2022-12-31T21:18:43.453Z,96.79
2022-12-31T21:21:36.761Z,96.64
2022-12-31T21:24:25.827Z,96.49
2022-12-31T21:27:19.328Z,96.54
2022-12-31T21:30:18.797Z,96.45
2022-12-31T21:33:07.876Z,96.33
2022-12-31T21:36:01.127Z,96.51
2022-12-31T21:38:53.048Z,96.26
2022-12-31T21:41:53.675Z,96.28
2022-12-31T21:44:42.630Z,96.17
2022-12-31T21:47:49.603Z,96.10
2022-12-31T21:50:39.056Z,96.06
2022-12-31T21:53:34.189Z,96.20
2022-12-31T21:56:25.237Z,96.14
2022-12-31T21:59:31.971Z,96.28
2022-12-31T22:02:38.710Z,96.39
2022-12-31T22:05:27.259Z,96.67
2022-12-31T22:08:15.749Z,97.12
2022-12-31T22:11:04.313Z,97.39
2022-12-31T22:13:53.365Z,97.42
2022-12-31T22:16:41.870Z,97.41
2022-12-31T22:19:30.528Z,97.04
2022-12-31T22:22:19.198Z,97.01
2022-12-31T22:25:08.442Z,97.35
2022-12-31T22:28:36.156Z,97.68
2022-12-31T22:31:05.991Z,97.64
2022-12-31T22:33:54.563Z,97.83
2022-12-31T22:36:42.967Z,97.60
2022-12-31T22:39:43.548Z,97.46
2022-12-31T22:42:32.912Z,97.54
2022-12-31T22:45:21.536Z,97.04
2022-12-31T22:48:10.076Z,96.97
2022-12-31T22:50:58.753Z,96.95
2022-12-31T22:53:47.165Z,97.01
2022-12-31T22:56:35.667Z,96.93
2022-12-31T22:59:24.186Z,96.90
2022-12-31T23:02:12.732Z,96.88
2022-12-31T23:05:15.166Z,96.75
2022-12-31T23:08:11.848Z,96.67
2022-12-31T23:11:09.043Z,96.67
2022-12-31T23:14:15.898Z,96.48
2022-12-31T23:17:30.230Z,96.12
2022-12-31T23:20:40.579Z,95.37
2022-12-31T23:23:29.132Z,94.71
2022-12-31T23:26:17.548Z,94.29
2022-12-31T23:29:05.875Z,94.13
2022-12-31T23:31:54.416Z,93.81
2022-12-31T23:34:43.358Z,93.62
2022-12-31T23:37:32.753Z,93.52
2022-12-31T23:40:22.056Z,93.44
2022-12-31T23:43:18.301Z,93.21
2022-12-31T23:46:07.021Z,93.28
2022-12-31T23:48:55.666Z,92.86
2022-12-31T23:51:44.827Z,92.65
2022-12-31T23:54:34.478Z,92.23
2022-12-31T23:57:22.959Z,92.01
